Asteria — WDE5489 — position and weather

sailwx.info

Track history (hours):
 
Tides and Currents Weather Stations Pressure Air Temp Water Temp Dewpoint Dewpoint Depression Visibility Wind Speed Wind Dir Waves Ship Positions

Asteria

Owner: Boston HarborCruises, Boston, MA. More information available from US FCC via Universal Licensing System and Coast Guard Vessel Documentation Center.

Last reported at 2018-Jan-23 21:51 UTC. Time now 2018-Feb-24 18:13 UTC.
Position N 42°37' W 070°39'.
Warning: this ship's position is 31 days out of date.

Length 33 m; draft 2 m.

Type: High speed craft. MMSI: 367367470.

Date/timePositionNaut miles runAvg speedWind from/ knotsBaromVisibWave heightAir tempDewpointWater temp
2018-Jan-23 21:51N 42°37' W 070°39'0 0.0
2018-Jan-23 21:30N 42°37' W 070°39'611.3
2018-Jan-23 21:01N 42°32' W 070°43'17 6.1
2018-Jan-23 18:08N 42°22' W 071°02'0 0.6
2018-Jan-23 18:00N 42°22' W 071°02'0 0.0
2018-Jan-23 17:15N 42°22' W 071°02'8 0.5
2018-Jan-23 01:03N 42°16' W 070°55'415.5
2018-Jan-23 00:49N 42°18' W 070°59'410.6
2018-Jan-23 00:24N 42°21' W 071°03'511.9
2018-Jan-23 00:00N 42°18' W 070°58'3 4.8
2018-Jan-22 23:26N 42°16' W 070°56'817.0
2018-Jan-22 22:59N 42°21' W 071°03'4 7.3
2018-Jan-22 22:28N 42°19' W 070°59'1 1.1
2018-Jan-22 21:43N 42°20' W 070°60'314.2
2018-Jan-22 21:30N 42°21' W 071°03'0 0.3
2018-Jan-22 20:32N 42°22' W 071°03'0 0.0
2018-Jan-22 20:15N 42°22' W 071°03'0 1.0
2018-Jan-22 20:01N 42°21' W 071°03'810.4
2018-Jan-22 19:12N 42°15' W 070°55'0 1.9
2018-Jan-22 19:00N 42°16' W 070°55'816.1
2018-Jan-22 18:30N 42°21' W 071°03'0 0.5
2018-Jan-22 18:00N 42°22' W 071°03'0 0.2
2018-Jan-22 17:30N 42°22' W 071°03'0 0.0
2018-Jan-22 16:59N 42°22' W 071°03'0 0.0
2018-Jan-22 16:12N 42°22' W 071°03'0 0.0
2018-Jan-22 15:59N 42°22' W 071°03'0 0.0
2018-Jan-22 15:30N 42°22' W 071°03'0 0.0
2018-Jan-22 15:00N 42°22' W 071°03'0 0.5
2018-Jan-22 14:28N 42°21' W 071°03'511.7
2018-Jan-22 14:00N 42°18' W 070°58'2 4.9
2018-Jan-22 13:30N 42°16' W 070°55'815.4
2018-Jan-22 13:00N 42°21' W 071°03'612.6
2018-Jan-22 12:30N 42°17' W 070°57'2 4.2
2018-Jan-22 11:58N 42°15' W 070°55'  
2018-Jan-20 00:48N 42°17' W 070°56'722.5
2018-Jan-20 00:30N 42°21' W 071°03'3 5.7
2018-Jan-20 00:00N 42°20' W 070°60'5 9.5
2018-Jan-19 23:28N 42°16' W 070°55'811.0
2018-Jan-19 22:45N 42°21' W 071°03'414.7
2018-Jan-19 22:30N 42°19' W 070°59'4 8.6
2018-Jan-19 22:00N 42°16' W 070°55'812.2
2018-Jan-19 21:21N 42°21' W 071°03'1 1.7
2018-Jan-19 20:57N 42°22' W 071°02'0 0.0
2018-Jan-19 20:30N 42°22' W 071°02'0 0.7
2018-Jan-19 20:00N 42°21' W 071°02'8 8.9
2018-Jan-19 19:06N 42°15' W 070°55'1 4.0
2018-Jan-19 18:56N 42°16' W 070°55'817.7
2018-Jan-19 18:30N 42°21' W 071°03'0 0.0
2018-Jan-19 18:00N 42°21' W 071°03'2 0.9
2018-Jan-19 16:16N 42°23' W 071°03'0 0.0
2018-Jan-19 15:59N 42°23' W 071°03'1 1.5
2018-Jan-19 15:05N 42°22' W 071°03'0 5.1
2018-Jan-19 15:00N 42°22' W 071°02'1 1.2
2018-Jan-19 14:30N 42°21' W 071°03'712.9
2018-Jan-19 13:59N 42°17' W 070°56'4 5.0
2018-Jan-19 13:13N 42°20' W 070°60'314.3
2018-Jan-19 13:01N 42°21' W 071°03'611.9
2018-Jan-19 12:30N 42°17' W 070°57'2 3.2
2018-Jan-19 11:49N 42°16' W 070°55'8 0.7
2018-Jan-19 00:12N 42°21' W 071°02'526.2
2018-Jan-19 00:00N 42°17' W 070°57'2 4.3
2018-Jan-18 23:29N 42°16' W 070°55'810.8
2018-Jan-18 22:45N 42°21' W 071°03'312.8
2018-Jan-18 22:30N 42°20' W 070°60'5 9.7
2018-Jan-18 22:00N 42°16' W 070°55'814.9
2018-Jan-18 21:28N 42°21' W 071°03'1 1.5
2018-Jan-18 21:00N 42°22' W 071°02'0 0.1
2018-Jan-18 20:30N 42°22' W 071°02'0 0.8
2018-Jan-18 19:59N 42°21' W 071°02'811.9
2018-Jan-18 19:19N 42°15' W 070°55'0 1.0
2018-Jan-18 18:58N 42°16' W 070°55'817.3
2018-Jan-18 18:30N 42°21' W 071°03'0 0.0
2018-Jan-18 16:43N 42°21' W 071°03'0 0.7
2018-Jan-18 16:29N 42°21' W 071°03'0 0.4
2018-Jan-18 16:00N 42°21' W 071°03'0 0.4
2018-Jan-18 15:26N 42°22' W 071°03'1 1.2
2018-Jan-18 15:00N 42°22' W 071°02'0 0.8
2018-Jan-18 14:29N 42°21' W 071°03'813.4
2018-Jan-18 13:55N 42°16' W 070°55'0 0.1
2018-Jan-18 13:29N 42°16' W 070°55'816.1
2018-Jan-18 13:00N 42°21' W 071°03'713.0
2018-Jan-18 12:27N 42°17' W 070°56'1 1.3
2018-Jan-18 11:48N 42°16' W 070°55'0 0.0
2018-Jan-18 00:57N 42°16' W 070°55'  
Track history (hours):
 
Tides and Currents Weather Stations Pressure Air Temp Water Temp Dewpoint Dewpoint Depression Visibility Wind Speed Wind Dir Waves Ship Positions

Asteria

Owner: Boston HarborCruises, Boston, MA. More information available from US FCC via Universal Licensing System and Coast Guard Vessel Documentation Center.

Last reported at 2018-Jan-23 21:51 UTC. Time now 2018-Feb-24 18:13 UTC.
Position N 42°37' W 070°39'.
Warning: this ship's position is 31 days out of date.

Length 33 m; draft 2 m.

Type: High speed craft. MMSI: 367367470.

Date/timePositionNaut miles runAvg speedWind from/ knotsBaromVisibWave heightAir tempDewpointWater temp
2018-Jan-23 21:51N 42°37' W 070°39'0 0.0
2018-Jan-23 21:30N 42°37' W 070°39'611.3
2018-Jan-23 21:01N 42°32' W 070°43'17 6.1
2018-Jan-23 18:08N 42°22' W 071°02'0 0.6
2018-Jan-23 18:00N 42°22' W 071°02'0 0.0
2018-Jan-23 17:15N 42°22' W 071°02'8 0.5
2018-Jan-23 01:03N 42°16' W 070°55'415.5
2018-Jan-23 00:49N 42°18' W 070°59'410.6
2018-Jan-23 00:24N 42°21' W 071°03'511.9
2018-Jan-23 00:00N 42°18' W 070°58'3 4.8
2018-Jan-22 23:26N 42°16' W 070°56'817.0
2018-Jan-22 22:59N 42°21' W 071°03'4 7.3
2018-Jan-22 22:28N 42°19' W 070°59'1 1.1
2018-Jan-22 21:43N 42°20' W 070°60'314.2
2018-Jan-22 21:30N 42°21' W 071°03'0 0.3
2018-Jan-22 20:32N 42°22' W 071°03'0 0.0
2018-Jan-22 20:15N 42°22' W 071°03'0 1.0
2018-Jan-22 20:01N 42°21' W 071°03'810.4
2018-Jan-22 19:12N 42°15' W 070°55'0 1.9
2018-Jan-22 19:00N 42°16' W 070°55'816.1
2018-Jan-22 18:30N 42°21' W 071°03'0 0.5
2018-Jan-22 18:00N 42°22' W 071°03'0 0.2
2018-Jan-22 17:30N 42°22' W 071°03'0 0.0
2018-Jan-22 16:59N 42°22' W 071°03'0 0.0
2018-Jan-22 16:12N 42°22' W 071°03'0 0.0
2018-Jan-22 15:59N 42°22' W 071°03'0 0.0
2018-Jan-22 15:30N 42°22' W 071°03'0 0.0
2018-Jan-22 15:00N 42°22' W 071°03'0 0.5
2018-Jan-22 14:28N 42°21' W 071°03'511.7
2018-Jan-22 14:00N 42°18' W 070°58'2 4.9
2018-Jan-22 13:30N 42°16' W 070°55'815.4
2018-Jan-22 13:00N 42°21' W 071°03'612.6
2018-Jan-22 12:30N 42°17' W 070°57'2 4.2
2018-Jan-22 11:58N 42°15' W 070°55'  
2018-Jan-20 00:48N 42°17' W 070°56'722.5
2018-Jan-20 00:30N 42°21' W 071°03'3 5.7
2018-Jan-20 00:00N 42°20' W 070°60'5 9.5
2018-Jan-19 23:28N 42°16' W 070°55'811.0
2018-Jan-19 22:45N 42°21' W 071°03'414.7
2018-Jan-19 22:30N 42°19' W 070°59'4 8.6
2018-Jan-19 22:00N 42°16' W 070°55'812.2
2018-Jan-19 21:21N 42°21' W 071°03'1 1.7
2018-Jan-19 20:57N 42°22' W 071°02'0 0.0
2018-Jan-19 20:30N 42°22' W 071°02'0 0.7
2018-Jan-19 20:00N 42°21' W 071°02'8 8.9
2018-Jan-19 19:06N 42°15' W 070°55'1 4.0
2018-Jan-19 18:56N 42°16' W 070°55'817.7
2018-Jan-19 18:30N 42°21' W 071°03'0 0.0
2018-Jan-19 18:00N 42°21' W 071°03'2 0.9
2018-Jan-19 16:16N 42°23' W 071°03'0 0.0
2018-Jan-19 15:59N 42°23' W 071°03'1 1.5
2018-Jan-19 15:05N 42°22' W 071°03'0 5.1
2018-Jan-19 15:00N 42°22' W 071°02'1 1.2
2018-Jan-19 14:30N 42°21' W 071°03'712.9
2018-Jan-19 13:59N 42°17' W 070°56'4 5.0
2018-Jan-19 13:13N 42°20' W 070°60'314.3
2018-Jan-19 13:01N 42°21' W 071°03'611.9
2018-Jan-19 12:30N 42°17' W 070°57'2 3.2
2018-Jan-19 11:49N 42°16' W 070°55'8 0.7
2018-Jan-19 00:12N 42°21' W 071°02'526.2
2018-Jan-19 00:00N 42°17' W 070°57'2 4.3
2018-Jan-18 23:29N 42°16' W 070°55'810.8
2018-Jan-18 22:45N 42°21' W 071°03'312.8
2018-Jan-18 22:30N 42°20' W 070°60'5 9.7
2018-Jan-18 22:00N 42°16' W 070°55'814.9
2018-Jan-18 21:28N 42°21' W 071°03'1 1.5
2018-Jan-18 21:00N 42°22' W 071°02'0 0.1
2018-Jan-18 20:30N 42°22' W 071°02'0 0.8
2018-Jan-18 19:59N 42°21' W 071°02'811.9
2018-Jan-18 19:19N 42°15' W 070°55'0 1.0
2018-Jan-18 18:58N 42°16' W 070°55'817.3
2018-Jan-18 18:30N 42°21' W 071°03'0 0.0
2018-Jan-18 16:43N 42°21' W 071°03'0 0.7
2018-Jan-18 16:29N 42°21' W 071°03'0 0.4
2018-Jan-18 16:00N 42°21' W 071°03'0 0.4
2018-Jan-18 15:26N 42°22' W 071°03'1 1.2
2018-Jan-18 15:00N 42°22' W 071°02'0 0.8
2018-Jan-18 14:29N 42°21' W 071°03'813.4
2018-Jan-18 13:55N 42°16' W 070°55'0 0.1
2018-Jan-18 13:29N 42°16' W 070°55'816.1
2018-Jan-18 13:00N 42°21' W 071°03'713.0
2018-Jan-18 12:27N 42°17' W 070°56'1 1.3
2018-Jan-18 11:48N 42°16' W 070°55'0 0.0
2018-Jan-18 00:57N 42°16' W 070°55'  

Dump ship's entire track history